Arrowbear Lake, California
Current Conditions -  °F | °C
As of 5:55 AM on Thursday 30 Oct 2014 (Local Time) from KL35 Reporting Station
Clear Clear  
Wind Chill: 28°   Ceiling: Unl
Heat Index: 28°   Visibility: 10mi
Dew Point: 12°   Wind: 0mph
Humidity: 51%   Direction: NA
Pressure: 30.25"   Gusts: NA
Location:  34.1964°N, 117.089°W
Report Text: KL35 301255Z AUTO 00000KT 10SM CLR M02/M11 A3025 RMK AO2
Loading
Personal Weather Stations






























Interactive Weather Map
Tropical Storm Tracking
New forecast layout! Learn more

10-Day Weather Forecast

Advertisements
Track Severe Weather on mobile